Time;durP1;ratioP1;P1;durP2;ratioP2;P2;SDS_P1;SDS_P2;PMS_P1;PMS_P2;Temp;Humidity;BMP_temperature;BMP_pressure;BME280_temperature;BME280_humidity;BME280_pressure;Samples;Min_cycle;Max_cycle;Signal;HPM_P1;HPM_P2
2022/05/16 04:05:23;;;;;;;2.17;2.07;;;15.60;99.90;;;;;;5603226;22;21054;-69
2022/05/16 04:07:49;;;;;;;2.20;2.10;;;15.60;99.90;;;;;;4995491;28;20411;-69
2022/05/16 04:10:15;;;;;;;1.80;1.70;;;15.60;99.90;;;;;;4994942;28;20505;-69
2022/05/16 04:12:41;;;;;;;4.10;3.07;;;15.60;99.90;;;;;;4995122;28;20811;-68
2022/05/16 04:15:08;;;;;;;2.77;2.63;;;15.50;99.90;;;;;;4995003;28;20302;-70
2022/05/16 04:17:34;;;;;;;2.40;2.20;;;15.50;99.90;;;;;;4995297;28;20415;-69
2022/05/16 04:20:00;;;;;;;2.30;2.17;;;15.50;99.90;;;;;;4995694;28;20386;-69
2022/05/16 04:22:26;;;;;;;2.40;2.20;;;15.50;99.90;;;;;;4994773;28;20348;-68
2022/05/16 04:24:52;;;;;;;3.10;2.60;;;15.50;99.90;;;;;;4994623;28;20525;-69
2022/05/16 04:27:18;;;;;;;2.67;2.17;;;15.50;99.90;;;;;;4995173;28;20963;-68
2022/05/16 04:29:43;;;;;;;2.63;2.43;;;15.60;99.90;;;;;;4995247;28;20179;-69
2022/05/16 04:32:09;;;;;;;2.00;1.90;;;15.60;99.90;;;;;;4994846;28;20168;-68
2022/05/16 04:34:35;;;;;;;3.80;3.10;;;15.70;99.90;;;;;;4993673;28;20683;-68
2022/05/16 04:37:00;;;;;;;2.67;2.57;;;15.70;99.90;;;;;;4994797;28;20164;-67
2022/05/16 04:39:26;;;;;;;2.40;2.20;;;15.80;99.90;;;;;;4994731;28;20210;-68
2022/05/16 04:44:38;;;;;;;2.10;2.00;;;15.90;99.90;;;;;;4994791;28;20201;-66
2022/05/16 04:47:05;;;;;;;2.40;2.20;;;16.00;99.90;;;;;;4978123;28;20983;-67
2022/05/16 04:49:31;;;;;;;2.67;2.47;;;16.00;99.90;;;;;;4994926;28;20804;-67
2022/05/16 04:51:57;;;;;;;2.40;2.20;;;16.10;99.90;;;;;;4994639;28;20458;-67
2022/05/16 04:54:22;;;;;;;2.37;2.17;;;16.20;99.90;;;;;;4994055;28;20442;-69
2022/05/16 04:56:49;;;;;;;3.03;2.83;;;16.20;99.90;;;;;;4994361;28;20180;-68
2022/05/16 04:59:15;;;;;;;2.50;2.30;;;16.30;99.90;;;;;;4994637;28;20191;-68
2022/05/16 05:01:41;;;;;;;2.77;2.20;;;16.40;99.90;;;;;;4993897;28;20928;-68
2022/05/16 05:04:07;;;;;;;6.90;3.03;;;16.30;99.90;;;;;;4983356;28;20444;-67
2022/05/16 05:06:33;;;;;;;2.63;2.43;;;16.20;99.90;;;;;;4974826;28;20431;-67
2022/05/16 05:08:59;;;;;;;2.40;2.30;;;15.90;99.90;;;;;;4977915;28;20507;-68
2022/05/16 05:16:53;;;;;;;2.90;2.70;;;15.30;99.90;;;;;;4993593;28;20472;-68
2022/05/16 05:19:18;;;;;;;3.23;3.03;;;15.20;99.90;;;;;;4994094;28;20714;-68
2022/05/16 05:21:44;;;;;;;2.90;2.70;;;15.10;99.90;;;;;;4994265;28;20175;-68
2022/05/16 05:24:10;;;;;;;3.10;2.90;;;15.00;99.90;;;;;;4993294;28;20199;-67
2022/05/16 05:26:36;;;;;;;2.60;2.40;;;14.90;99.90;;;;;;4993647;28;20183;-67
2022/05/16 05:29:02;;;;;;;2.73;2.50;;;14.90;99.90;;;;;;4993994;28;20178;-68
2022/05/16 05:31:28;;;;;;;3.33;3.03;;;14.80;99.90;;;;;;4994174;28;20463;-68
2022/05/16 05:33:55;;;;;;;2.50;2.40;;;14.90;99.90;;;;;;4993464;28;20404;-67
2022/05/16 05:36:21;;;;;;;2.80;2.60;;;14.90;99.90;;;;;;4993988;28;20413;-68
2022/05/16 05:38:51;;;;;;;2.63;2.53;;;15.00;99.90;;;;;;4976323;28;20381;-68
2022/05/16 05:41:18;;;;;;;3.10;2.77;;;15.10;99.90;;;;;;4983844;28;20755;-68
2022/05/16 05:43:43;;;;;;;2.60;2.40;;;15.20;99.90;;;;;;4978476;28;20421;-67
2022/05/16 05:46:09;;;;;;;2.97;2.73;;;15.30;99.90;;;;;;4974160;28;20434;-67
2022/05/16 05:48:35;;;;;;;3.40;3.10;;;15.50;99.90;;;;;;4977851;28;20371;-68
2022/05/16 05:51:01;;;;;;;3.40;3.07;;;15.60;99.90;;;;;;4986399;28;20450;-68
2022/05/16 05:53:27;;;;;;;2.87;2.67;;;15.80;99.90;;;;;;4994249;28;20187;-69
2022/05/16 05:55:53;;;;;;;2.20;2.10;;;15.90;99.90;;;;;;4976730;28;20195;-68
2022/05/16 05:58:19;;;;;;;6.60;2.53;;;16.00;99.90;;;;;;4977431;28;20433;-69
2022/05/16 06:00:45;;;;;;;2.73;2.53;;;16.10;99.90;;;;;;4996583;28;20768;-69
2022/05/16 06:03:11;;;;;;;5.47;3.30;;;16.20;99.90;;;;;;4994986;28;20446;-68
2022/05/16 06:05:37;;;;;;;2.83;2.63;;;16.20;99.90;;;;;;4995788;28;20188;-67
2022/05/16 06:08:03;;;;;;;2.73;2.50;;;16.20;99.90;;;;;;4983267;28;20447;-67
2022/05/16 06:10:29;;;;;;;2.80;2.60;;;16.30;99.90;;;;;;4959678;28;20227;-69
2022/05/16 06:12:55;;;;;;;3.83;3.47;;;16.40;99.90;;;;;;4989436;28;20178;-68
2022/05/16 06:15:22;;;;;;;3.17;2.97;;;16.50;99.90;;;;;;4996540;28;20396;-68
2022/05/16 06:17:47;;;;;;;3.70;3.40;;;16.60;99.90;;;;;;4995675;28;20263;-67
2022/05/16 06:20:14;;;;;;;2.57;2.37;;;16.70;99.90;;;;;;4987946;28;20501;-69
2022/05/16 06:22:40;;;;;;;3.80;3.50;;;16.80;99.90;;;;;;4972447;28;20675;-69
2022/05/16 06:27:54;;;;;;;3.40;2.73;;;17.10;99.90;;;;;;4993328;28;20222;-69
2022/05/16 06:30:21;;;;;;;2.63;2.43;;;17.40;99.90;;;;;;4990946;28;20851;-68
2022/05/16 06:32:47;;;;;;;6.00;5.40;;;17.60;99.90;;;;;;4972440;28;20427;-69
2022/05/16 06:35:13;;;;;;;2.83;2.63;;;17.90;99.90;;;;;;4984511;28;20491;-68
2022/05/16 06:37:39;;;;;;;2.83;2.63;;;18.20;99.90;;;;;;4976694;28;20740;-67
2022/05/16 06:40:05;;;;;;;3.90;3.50;;;18.50;99.90;;;;;;4993458;28;20413;-70
2022/05/16 06:42:31;;;;;;;3.50;3.20;;;18.80;99.90;;;;;;4995572;28;20470;-66
2022/05/16 06:44:57;;;;;;;2.47;2.27;;;19.00;99.90;;;;;;4995835;28;20430;-70
2022/05/16 06:47:24;;;;;;;5.50;2.33;;;19.30;99.90;;;;;;4993368;28;20653;-68
2022/05/16 06:49:51;;;;;;;3.23;2.63;;;19.50;99.90;;;;;;4995758;28;21075;-68
2022/05/16 06:52:17;;;;;;;2.80;2.60;;;19.80;99.90;;;;;;4994942;28;20410;-70
2022/05/16 06:54:44;;;;;;;3.80;2.80;;;20.00;99.90;;;;;;4978038;28;20840;-68
2022/05/16 06:57:10;;;;;;;3.00;2.50;;;20.10;99.90;;;;;;4991231;28;20796;-69
2022/05/16 06:59:36;;;;;;;5.37;3.70;;;20.30;99.90;;;;;;4976829;28;20420;-70
2022/05/16 07:02:03;;;;;;;3.00;1.97;;;20.50;99.90;;;;;;4990812;28;20502;-71
2022/05/16 07:04:29;;;;;;;3.20;2.53;;;20.80;99.90;;;;;;4994276;28;20433;-70
2022/05/16 07:06:54;;;;;;;2.57;2.37;;;21.30;99.90;;;;;;4996292;28;20396;-70
2022/05/16 07:09:20;;;;;;;2.10;2.00;;;21.70;99.90;;;;;;4996359;28;20218;-70
2022/05/16 07:11:45;;;;;;;3.30;3.00;;;22.10;99.70;;;;;;4996736;28;20208;-70
2022/05/16 07:14:11;;;;;;;3.17;2.97;;;22.40;98.10;;;;;;4992424;28;20206;-71
2022/05/16 07:16:38;;;;;;;3.40;3.00;;;22.50;96.70;;;;;;4987808;28;20171;-71
2022/05/16 07:19:04;;;;;;;2.70;2.50;;;22.50;96.60;;;;;;4996377;28;20300;-71
2022/05/16 07:21:29;;;;;;;2.43;2.23;;;22.50;96.80;;;;;;4978792;28;20472;-72
2022/05/16 07:23:55;;;;;;;2.20;2.10;;;22.70;97.30;;;;;;4983440;28;20222;-71
2022/05/16 07:29:05;;;;;;;2.83;2.30;;;23.10;96.70;;;;;;4977109;28;20196;-72
2022/05/16 07:31:30;;;;;;;2.93;2.50;;;23.50;97.10;;;;;;4976757;28;20819;-70
2022/05/16 07:33:58;;;;;;;2.77;2.43;;;24.00;96.20;;;;;;4976337;28;20195;-70
2022/05/16 07:36:24;;;;;;;2.60;2.40;;;24.60;94.60;;;;;;4977480;28;20642;-69
2022/05/16 07:38:50;;;;;;;3.63;3.33;;;25.10;94.20;;;;;;4978499;28;20407;-67
2022/05/16 07:41:16;;;;;;;2.60;2.40;;;25.70;93.20;;;;;;4978724;28;20394;-67
2022/05/16 07:43:42;;;;;;;2.00;1.90;;;26.30;90.70;;;;;;4977847;28;20258;-69
2022/05/16 07:46:08;;;;;;;5.30;2.43;;;26.40;90.40;;;;;;4996090;28;20169;-71
2022/05/16 07:48:34;;;;;;;2.37;2.17;;;26.30;90.10;;;;;;4995845;28;20404;-69
2022/05/16 07:51:00;;;;;;;2.90;2.60;;;26.10;90.40;;;;;;4995903;28;20435;-69
2022/05/16 07:53:26;;;;;;;2.93;2.60;;;25.90;90.40;;;;;;4994883;28;20199;-70
2022/05/16 07:55:54;;;;;;;2.60;2.40;;;25.70;91.10;;;;;;4995841;28;20402;-71
2022/05/16 07:58:21;;;;;;;3.03;2.83;;;25.70;90.80;;;;;;4995460;28;20381;-70
2022/05/16 08:00:50;;;;;;;2.77;2.57;;;25.60;90.90;;;;;;4995683;28;20393;-69
2022/05/16 08:03:18;;;;;;;2.67;2.43;;;25.60;91.10;;;;;;4995164;28;20407;-70
2022/05/16 08:05:44;;;;;;;3.00;2.80;;;25.50;90.80;;;;;;4995342;28;20416;-69
2022/05/16 08:11:00;;;;;;;3.00;2.50;;;25.20;91.10;;;;;;4995480;28;20739;-72
2022/05/16 08:13:28;;;;;;;3.60;2.87;;;25.00;91.30;;;;;;4995375;28;20442;-71
2022/05/16 08:15:54;;;;;;;3.43;2.17;;;24.80;91.70;;;;;;4994612;28;20415;-72
2022/05/16 08:18:20;;;;;;;2.30;2.20;;;24.80;91.60;;;;;;4995483;28;20751;-71
2022/05/16 08:20:47;;;;;;;3.97;2.47;;;24.70;92.10;;;;;;4995518;28;20456;-71
2022/05/16 08:23:15;;;;;;;2.40;2.30;;;24.60;92.50;;;;;;4994410;28;20417;-70
2022/05/16 08:25:43;;;;;;;2.40;2.20;;;24.60;92.60;;;;;;4995166;28;20414;-69
2022/05/16 08:28:09;;;;;;;3.00;2.20;;;24.40;93.20;;;;;;4995112;28;20440;-71
2022/05/16 08:30:34;;;;;;;4.33;2.80;;;24.00;94.10;;;;;;4995187;28;20475;-70
2022/05/16 08:33:01;;;;;;;3.23;2.73;;;23.60;94.80;;;;;;4994571;28;20179;-69
2022/05/16 08:35:28;;;;;;;2.57;2.37;;;23.30;95.20;;;;;;4995001;28;20168;-69
2022/05/16 08:41:02;;;;;;;3.00;2.40;;;23.10;95.60;;;;;;4961241;28;20390;-70
2022/05/16 08:43:54;;;;;;;2.60;2.40;;;23.10;96.20;;;;;;4974907;28;20789;-69
2022/05/16 08:46:32;;;;;;;2.33;2.23;;;23.10;95.90;;;;;;4979983;28;20409;-71
2022/05/16 08:49:13;;;;;;;3.13;2.40;;;23.10;96.00;;;;;;4991146;28;20396;-70
2022/05/16 08:51:41;;;;;;;2.90;2.70;;;23.10;96.60;;;;;;4993587;28;20791;-70
2022/05/16 08:54:12;;;;;;;3.03;2.83;;;23.30;96.70;;;;;;4992211;28;20925;-71
2022/05/16 08:56:44;;;;;;;2.70;2.50;;;23.70;97.10;;;;;;4992406;28;20453;-68
2022/05/16 08:59:16;;;;;;;2.77;2.20;;;24.00;96.30;;;;;;4993532;28;20439;-71
2022/05/16 09:02:02;;;;;;;2.33;2.20;;;24.40;95.90;;;;;;4993091;28;20720;-71
2022/05/16 09:04:43;;;;;;;2.17;2.00;;;24.90;95.40;;;;;;4992710;28;20424;-73
2022/05/16 09:07:16;;;;;;;3.83;2.30;;;25.70;94.30;;;;;;4992848;28;20503;-74
2022/05/16 09:10:08;;;;;;;2.80;2.60;;;26.30;93.10;;;;;;4993609;28;20410;-72
2022/05/16 09:12:59;;;;;;;2.67;2.47;;;26.90;92.50;;;;;;4993022;28;20431;-70
2022/05/16 09:15:55;;;;;;;3.03;2.67;;;27.70;91.90;;;;;;4992086;28;20411;-71
2022/05/16 09:18:55;;;;;;;3.40;3.10;;;28.60;89.90;;;;;;4992397;28;20433;-69
2022/05/16 09:21:30;;;;;;;3.70;3.00;;;29.70;87.10;;;;;;4966927;28;20470;-70
2022/05/16 09:24:13;;;;;;;3.20;3.00;;;30.10;84.60;;;;;;4992034;28;20438;-69
2022/05/16 09:26:56;;;;;;;5.90;4.70;;;30.60;81.20;;;;;;4979399;28;20425;-72
2022/05/16 09:29:31;;;;;;;6.13;4.63;;;30.50;80.10;;;;;;4972038;28;20427;-70
2022/05/16 09:32:14;;;;;;;3.90;3.60;;;30.30;79.90;;;;;;4972536;28;20963;-71
2022/05/16 09:34:41;;;;;;;7.23;3.30;;;30.00;81.40;;;;;;4967876;28;20442;-71
2022/05/16 09:37:07;;;;;;;3.10;2.80;;;30.00;80.80;;;;;;4990450;28;20491;-68
2022/05/16 09:39:33;;;;;;;3.53;3.23;;;30.00;79.80;;;;;;4992135;28;20438;-71
2022/05/16 09:42:20;;;;;;;3.30;3.10;;;30.20;80.70;;;;;;4992482;28;20415;-69
2022/05/16 09:44:48;;;;;;;3.50;3.20;;;30.30;79.90;;;;;;4980783;28;20466;-70
2022/05/16 09:47:18;;;;;;;3.93;3.13;;;30.20;80.80;;;;;;4986987;28;20477;-71
2022/05/16 09:49:46;;;;;;;3.47;3.17;;;30.00;79.60;;;;;;4993078;28;20493;-69
2022/05/16 09:52:20;;;;;;;3.30;3.03;;;29.50;79.80;;;;;;4991310;28;20434;-71
2022/05/16 09:55:04;;;;;;;3.80;3.50;;;29.30;79.80;;;;;;4992330;28;20468;-72
2022/05/16 09:57:37;;;;;;;3.67;3.37;;;29.00;80.10;;;;;;4982829;28;20428;-69
2022/05/16 10:00:24;;;;;;;4.03;3.00;;;28.90;80.70;;;;;;4992745;28;20403;-70
2022/05/16 10:03:14;;;;;;;3.17;2.97;;;29.40;80.90;;;;;;4974874;28;20394;-71
2022/05/16 10:05:47;;;;;;;3.23;2.87;;;30.20;80.30;;;;;;4992090;28;20879;-72
2022/05/16 10:08:21;;;;;;;4.27;3.27;;;30.80;75.00;;;;;;4992655;28;20410;-70
2022/05/16 10:10:48;;;;;;;3.43;3.20;;;31.00;74.80;;;;;;4992052;28;20489;-67
2022/05/16 10:13:15;;;;;;;3.70;3.40;;;30.90;74.50;;;;;;4991806;28;20446;-67
2022/05/16 10:15:43;;;;;;;3.90;3.60;;;30.70;74.70;;;;;;4992099;28;20502;-69
2022/05/16 10:18:14;;;;;;;7.00;3.90;;;30.60;74.20;;;;;;4992524;28;20468;-64
2022/05/16 10:20:46;;;;;;;7.43;3.50;;;30.90;75.30;;;;;;4992514;28;20410;-69
2022/05/16 10:23:37;;;;;;;3.77;3.40;;;31.40;73.50;;;;;;4991339;28;20447;-68
2022/05/16 10:26:07;;;;;;;3.73;3.53;;;31.70;72.50;;;;;;4992095;28;20430;-66
2022/05/16 10:28:38;;;;;;;4.03;3.50;;;31.70;74.80;;;;;;4991915;28;20414;-68
2022/05/16 10:33:57;;;;;;;4.27;3.80;;;31.20;77.00;;;;;;4992134;28;20461;-65
2022/05/16 10:36:30;;;;;;;3.97;3.57;;;30.60;76.80;;;;;;4990735;28;20430;-68
2022/05/16 10:39:02;;;;;;;4.50;4.07;;;30.20;76.70;;;;;;4992989;28;20401;-68
2022/05/16 10:41:39;;;;;;;4.20;3.80;;;29.50;78.90;;;;;;4996022;28;20407;-69
2022/05/16 10:44:25;;;;;;;5.03;3.77;;;29.10;80.30;;;;;;4995251;28;20430;-68
2022/05/16 10:47:13;;;;;;;4.43;4.03;;;28.60;80.90;;;;;;4994484;28;20462;-70
2022/05/16 10:50:08;;;;;;;4.73;3.67;;;28.20;82.50;;;;;;4995008;28;20426;-68
2022/05/16 10:53:15;;;;;;;3.67;3.40;;;27.70;84.10;;;;;;4976912;28;20418;-67
2022/05/16 10:56:05;;;;;;;3.63;3.33;;;27.30;84.50;;;;;;4965179;28;20472;-70
2022/05/16 10:58:36;;;;;;;4.37;4.03;;;26.80;84.50;;;;;;4977515;28;20507;-69
2022/05/16 11:01:29;;;;;;;5.17;4.03;;;26.40;85.50;;;;;;4995475;28;20405;-69
2022/05/16 11:04:24;;;;;;;3.00;2.70;;;26.00;86.20;;;;;;4995009;28;20418;-69
2022/05/16 11:07:07;;;;;;;2.70;2.50;;;25.60;86.80;;;;;;4994098;28;20423;-69
2022/05/16 11:09:47;;;;;;;2.67;2.47;;;25.20;87.60;;;;;;4995542;28;20832;-67
2022/05/16 11:13:00;;;;;;;2.27;2.10;;;24.80;89.00;;;;;;4975560;28;20985;-67
2022/05/16 11:15:38;;;;;;;2.90;2.30;;;24.50;91.80;;;;;;4994855;28;20393;-68
2022/05/16 11:18:22;;;;;;;2.73;2.30;;;24.40;92.50;;;;;;4994680;28;20443;-68
2022/05/16 11:20:55;;;;;;;3.60;2.43;;;24.10;91.90;;;;;;4995193;28;20381;-70
2022/05/16 11:23:26;;;;;;;5.03;2.23;;;24.00;92.00;;;;;;4994723;28;20401;-68
2022/05/16 11:26:15;;;;;;;4.40;2.13;;;23.90;92.40;;;;;;4994057;28;20405;-69
2022/05/16 11:29:17;;;;;;;2.43;2.23;;;23.90;92.50;;;;;;4978899;28;20401;-69
2022/05/16 11:31:42;;;;;;;2.90;2.67;;;23.90;92.80;;;;;;4994764;28;20443;-67
2022/05/16 11:34:17;;;;;;;2.60;2.40;;;23.80;93.40;;;;;;4994431;28;20447;-67
2022/05/16 11:36:54;;;;;;;2.03;1.93;;;23.80;93.00;;;;;;4995338;28;20394;-68
2022/05/16 11:39:52;;;;;;;2.57;1.83;;;23.70;92.50;;;;;;4995756;28;20385;-68
2022/05/16 11:42:36;;;;;;;3.27;2.50;;;23.50;92.30;;;;;;4995308;28;20866;-67
2022/05/16 11:45:14;;;;;;;2.43;2.23;;;23.40;92.50;;;;;;4978073;28;20843;-67
2022/05/16 11:47:56;;;;;;;3.00;1.90;;;23.30;92.40;;;;;;4995733;28;20779;-68
2022/05/16 11:50:34;;;;;;;3.43;2.73;;;23.20;92.70;;;;;;4982923;28;20432;-67
2022/05/16 11:53:11;;;;;;;3.60;2.30;;;23.20;92.90;;;;;;4975953;28;20897;-67
2022/05/16 12:01:37;;;;;;;1.73;1.60;;;23.00;93.00;;;;;;4995656;28;20417;-67
2022/05/16 12:04:11;;;;;;;1.70;1.60;;;22.90;93.00;;;;;;4989905;28;20407;-68
2022/05/16 12:06:49;;;;;;;1.70;1.60;;;22.90;93.20;;;;;;4983695;28;20395;-66
2022/05/16 12:09:17;;;;;;;1.83;1.27;;;22.80;93.20;;;;;;4968524;28;20816;-67
2022/05/16 12:11:53;;;;;;;2.20;2.00;;;22.70;92.80;;;;;;4976373;28;20466;-66
2022/05/16 12:14:34;;;;;;;1.50;1.40;;;22.50;92.40;;;;;;4975322;28;20412;-66
2022/05/16 12:17:15;;;;;;;1.20;1.10;;;22.50;91.90;;;;;;4973793;28;20478;-69
2022/05/16 12:19:43;;;;;;;2.27;1.63;;;22.40;91.90;;;;;;4975939;28;20465;-72
2022/05/16 12:22:22;;;;;;;1.37;1.30;;;22.40;91.80;;;;;;4977926;28;20390;-70
2022/05/16 12:24:51;;;;;;;1.43;1.30;;;22.30;92.10;;;;;;4990496;28;20460;-70
2022/05/16 12:27:41;;;;;;;1.30;1.20;;;22.20;92.60;;;;;;4994868;28;20775;-72
2022/05/16 12:30:35;;;;;;;1.60;1.23;;;22.10;93.60;;;;;;4994843;28;20740;-67
2022/05/16 12:33:02;;;;;;;3.07;1.37;;;21.90;94.00;;;;;;4993922;28;20440;-67
2022/05/16 12:35:27;;;;;;;1.33;1.23;;;21.60;95.90;;;;;;4993557;28;20385;-67
2022/05/16 12:37:57;;;;;;;5.80;1.67;;;21.40;96.80;;;;;;4993308;28;20430;-67
2022/05/16 12:40:43;;;;;;;1.80;1.30;;;21.10;97.80;;;;;;4994508;28;20586;-67
2022/05/16 12:43:21;;;;;;;1.73;1.63;;;20.80;99.90;;;;;;4992283;28;20408;-69
2022/05/16 12:45:55;;;;;;;1.20;1.20;;;20.50;99.90;;;;;;4976802;28;20836;-65
2022/05/16 12:48:59;;;;;;;1.30;1.20;;;20.30;99.90;;;;;;4976868;28;20453;-65
2022/05/16 12:51:38;;;;;;;2.37;1.17;;;20.10;99.90;;;;;;4994618;28;20433;-65
2022/05/16 12:54:28;;;;;;;1.03;0.93;;;19.80;99.90;;;;;;4994160;28;20434;-66
2022/05/16 12:57:06;;;;;;;1.40;1.30;;;19.60;99.90;;;;;;4994589;28;20377;-66
2022/05/16 12:59:54;;;;;;;1.57;1.10;;;19.50;99.90;;;;;;4994670;28;20779;-65
2022/05/16 13:02:31;;;;;;;1.90;1.20;;;19.40;99.90;;;;;;4976235;28;20421;-65
2022/05/16 13:05:35;;;;;;;2.50;2.30;;;19.40;99.90;;;;;;4994480;28;20474;-66
2022/05/16 13:08:28;;;;;;;3.90;3.60;;;19.30;99.90;;;;;;4983770;28;20476;-65
2022/05/16 13:11:03;;;;;;;1.53;1.43;;;19.20;99.90;;;;;;4994559;28;20461;-66
2022/05/16 13:14:07;;;;;;;1.60;1.50;;;19.20;99.90;;;;;;4993877;28;20397;-66
2022/05/16 13:16:37;;;;;;;1.40;1.30;;;19.30;99.90;;;;;;4993935;28;20458;-67
2022/05/16 13:19:15;;;;;;;4.73;1.30;;;19.50;99.90;;;;;;4994328;28;20409;-65
2022/05/16 13:21:50;;;;;;;1.53;1.33;;;19.50;99.90;;;;;;4994404;28;20388;-64
2022/05/16 13:24:18;;;;;;;1.30;1.20;;;19.70;99.90;;;;;;4993742;28;20439;-66
2022/05/16 13:29:34;;;;;;;1.33;1.30;;;20.30;99.90;;;;;;4994345;28;20396;-68
2022/05/16 13:32:17;;;;;;;1.73;1.57;;;20.70;99.90;;;;;;4994640;28;20465;-65
2022/05/16 13:34:52;;;;;;;2.53;1.80;;;21.20;99.90;;;;;;4992442;28;20497;-66
2022/05/16 13:37:24;;;;;;;1.40;1.30;;;21.60;99.90;;;;;;4992746;28;20489;-66
2022/05/16 13:40:01;;;;;;;1.70;1.33;;;21.80;99.90;;;;;;4976757;28;20389;-64
2022/05/16 13:42:28;;;;;;;1.07;1.07;;;22.10;99.90;;;;;;4993334;28;20395;-65
2022/05/16 13:44:58;;;;;;;2.47;1.30;;;22.20;99.90;;;;;;4994010;28;20450;-65
2022/05/16 13:47:27;;;;;;;3.87;3.30;;;22.30;99.90;;;;;;4993732;28;20435;-65
2022/05/16 13:49:53;;;;;;;7.10;2.40;;;22.40;99.90;;;;;;4994038;28;20893;-65
2022/05/16 13:52:36;;;;;;;2.20;1.40;;;22.50;99.90;;;;;;4993384;28;20461;-65
2022/05/16 13:55:05;;;;;;;4.47;1.30;;;22.50;99.90;;;;;;4978109;28;20405;-64
2022/05/16 13:57:32;;;;;;;3.30;1.53;;;22.60;99.90;;;;;;4993090;28;20880;-65
2022/05/16 14:00:23;;;;;;;2.30;2.10;;;22.80;99.90;;;;;;4993769;28;20419;-65
2022/05/16 14:02:51;;;;;;;2.33;1.80;;;22.90;99.90;;;;;;4975734;28;20415;-65
2022/05/16 14:05:35;;;;;;;1.80;1.40;;;22.80;99.90;;;;;;4976085;28;20402;-65
2022/05/16 14:08:06;;;;;;;1.80;1.60;;;22.80;99.90;;;;;;4993412;28;20816;-65
2022/05/16 14:10:34;;;;;;;1.63;1.53;;;23.00;99.90;;;;;;4993639;28;20455;-64
2022/05/16 14:13:05;;;;;;;1.17;1.07;;;23.10;99.90;;;;;;4993120;28;20946;-64
2022/05/16 14:15:43;;;;;;;3.27;1.70;;;23.30;99.90;;;;;;4980781;28;20469;-65
2022/05/16 14:18:11;;;;;;;1.60;1.40;;;23.40;99.90;;;;;;4997517;28;20410;-64
2022/05/16 14:21:02;;;;;;;2.20;1.27;;;23.40;99.90;;;;;;4980047;28;20421;-64
2022/05/16 14:23:28;;;;;;;1.63;1.50;;;23.30;99.90;;;;;;4985618;28;20540;-65
2022/05/16 14:26:07;;;;;;;1.83;1.37;;;23.40;99.90;;;;;;4997633;28;20547;-65
2022/05/16 14:28:34;;;;;;;1.20;1.10;;;23.30;99.90;;;;;;4997418;28;20195;-65
2022/05/16 14:31:28;;;;;;;3.53;1.27;;;23.20;99.90;;;;;;4997277;28;20545;-68
2022/05/16 14:34:00;;;;;;;1.43;1.33;;;23.30;99.90;;;;;;4996768;28;20500;-65
2022/05/16 14:36:30;;;;;;;1.93;1.83;;;23.40;99.90;;;;;;4979660;28;20386;-66
2022/05/16 14:39:07;;;;;;;1.70;1.60;;;23.30;99.90;;;;;;4997129;28;20728;-67
2022/05/16 14:41:44;;;;;;;2.83;1.53;;;23.20;99.90;;;;;;4997165;28;20757;-66
2022/05/16 14:44:19;;;;;;;1.33;1.30;;;23.00;99.90;;;;;;4996740;28;20437;-67
2022/05/16 14:46:57;;;;;;;1.63;1.53;;;22.90;99.90;;;;;;4996694;28;20445;-66
2022/05/16 14:49:23;;;;;;;2.10;1.97;;;22.90;99.90;;;;;;4996906;28;20386;-66
2022/05/16 14:51:49;;;;;;;3.23;1.60;;;23.00;99.90;;;;;;4996772;28;20433;-67
2022/05/16 14:54:36;;;;;;;1.53;1.43;;;23.10;99.90;;;;;;4994961;28;20196;-67
2022/05/16 14:57:02;;;;;;;1.73;1.63;;;23.10;99.90;;;;;;4996045;28;20381;-67
2022/05/16 14:59:28;;;;;;;1.53;1.43;;;23.10;99.90;;;;;;4995999;28;20410;-66
2022/05/16 15:04:38;;;;;;;3.50;2.93;;;23.30;99.90;;;;;;4996662;28;20419;-65
2022/05/16 15:07:06;;;;;;;1.97;1.33;;;23.30;99.90;;;;;;4996263;28;20391;-65
2022/05/16 15:09:33;;;;;;;2.73;2.30;;;23.30;99.90;;;;;;4996725;28;20181;-66
2022/05/16 15:12:03;;;;;;;3.00;2.03;;;23.10;99.90;;;;;;4996345;28;20770;-65
2022/05/16 15:14:30;;;;;;;1.70;1.60;;;23.10;99.90;;;;;;4996061;28;20908;-66
2022/05/16 15:16:56;;;;;;;4.27;2.07;;;23.10;99.90;;;;;;4996227;28;20820;-66
2022/05/16 15:19:22;;;;;;;1.53;1.40;;;23.00;99.90;;;;;;4996577;28;20407;-66
2022/05/16 15:21:49;;;;;;;1.87;1.60;;;22.90;99.90;;;;;;4996137;28;20403;-65
2022/05/16 15:24:47;;;;;;;4.73;1.90;;;22.80;99.90;;;;;;4995789;28;20523;-66
2022/05/16 15:27:15;;;;;;;3.80;2.40;;;22.80;99.90;;;;;;4967055;28;20432;-66
2022/05/16 15:29:41;;;;;;;2.70;1.83;;;22.70;99.90;;;;;;4994361;28;20382;-66
2022/05/16 15:32:08;;;;;;;2.20;2.00;;;22.80;99.90;;;;;;4994796;28;20830;-73
2022/05/16 15:34:34;;;;;;;2.00;1.90;;;22.80;99.90;;;;;;4995155;28;20213;-66
2022/05/16 15:37:02;;;;;;;2.10;2.00;;;22.80;99.90;;;;;;4995857;28;20417;-66
2022/05/16 15:39:28;;;;;;;5.70;3.10;;;22.90;99.90;;;;;;4995533;28;20415;-65
2022/05/16 15:41:55;;;;;;;8.43;2.80;;;22.90;99.90;;;;;;4995526;28;20425;-65
2022/05/16 15:44:22;;;;;;;3.53;1.60;;;22.90;99.90;;;;;;4977789;28;20472;-65
2022/05/16 15:46:48;;;;;;;3.37;2.80;;;22.90;99.90;;;;;;4995896;28;20912;-65
2022/05/16 15:49:14;;;;;;;2.70;2.03;;;22.80;99.90;;;;;;4995394;28;20387;-66
2022/05/16 15:51:40;;;;;;;1.93;1.83;;;22.70;99.90;;;;;;4995542;28;20459;-66
2022/05/16 15:54:06;;;;;;;2.13;2.03;;;22.60;99.90;;;;;;4992881;28;20291;-68
2022/05/16 15:56:32;;;;;;;2.73;2.53;;;22.60;99.90;;;;;;4993842;28;20182;-65
2022/05/16 15:58:59;;;;;;;3.90;2.50;;;22.60;99.90;;;;;;4977163;28;20394;-69
2022/05/16 16:01:25;;;;;;;4.73;1.87;;;22.60;99.90;;;;;;4994754;28;20462;-68
2022/05/16 16:09:20;;;;;;;1.33;1.27;;;23.00;99.90;;;;;;4995086;28;20423;-67
2022/05/16 16:11:47;;;;;;;5.43;1.57;;;23.00;99.90;;;;;;4994217;28;20460;-69
2022/05/16 16:14:14;;;;;;;1.87;1.77;;;23.00;99.90;;;;;;4994675;28;20193;-69
2022/05/16 16:16:43;;;;;;;2.93;1.60;;;22.90;99.90;;;;;;4979550;28;20407;-68
2022/05/16 16:19:13;;;;;;;2.87;2.67;;;22.80;99.90;;;;;;4993844;28;20408;-68
2022/05/16 16:21:38;;;;;;;1.67;1.57;;;22.80;99.90;;;;;;4977826;28;20451;-68
2022/05/16 16:24:04;;;;;;;1.90;1.80;;;22.80;99.90;;;;;;4994469;28;20851;-70
2022/05/16 16:26:30;;;;;;;1.50;1.40;;;22.90;99.90;;;;;;4994959;28;20209;-68
2022/05/16 16:28:56;;;;;;;1.10;1.10;;;22.90;99.90;;;;;;4992298;28;20407;-68
2022/05/16 16:31:22;;;;;;;1.60;1.47;;;22.90;99.90;;;;;;4993199;28;20221;-69
2022/05/16 16:33:48;;;;;;;2.00;1.27;;;22.80;99.90;;;;;;4974911;28;20648;-69
2022/05/16 16:36:15;;;;;;;1.40;1.30;;;22.80;99.90;;;;;;4975812;28;20780;-69
2022/05/16 16:38:42;;;;;;;2.13;1.70;;;22.70;99.90;;;;;;4993480;28;20402;-68
2022/05/16 16:41:08;;;;;;;2.30;2.03;;;22.70;99.90;;;;;;4994088;28;20389;-66
2022/05/16 16:43:41;;;;;;;2.37;1.63;;;22.60;99.90;;;;;;4993606;28;20397;-68
2022/05/16 16:46:14;;;;;;;2.20;2.00;;;22.50;99.90;;;;;;4994632;28;20423;-68
2022/05/16 16:48:40;;;;;;;4.63;1.67;;;22.50;99.90;;;;;;4994673;28;20398;-71
2022/05/16 16:59:46;;;;;;;1.33;1.10;;;22.40;99.90;;;;;;4993871;28;20499;-69
2022/05/16 17:02:17;;;;;;;1.50;1.40;;;22.40;99.70;;;;;;4992863;28;20840;-68
2022/05/16 17:04:45;;;;;;;4.00;1.40;;;22.50;99.70;;;;;;4992913;28;20298;-75
2022/05/16 17:07:11;;;;;;;1.40;1.30;;;22.50;98.90;;;;;;4976079;28;20471;-75
2022/05/16 17:09:40;;;;;;;1.47;1.37;;;22.50;99.50;;;;;;4992942;28;20503;-75
2022/05/16 17:12:08;;;;;;;1.07;1.07;;;22.40;99.20;;;;;;4993002;28;20935;-70
2022/05/16 17:14:34;;;;;;;1.53;1.27;;;22.30;99.50;;;;;;4973564;28;20407;-68
2022/05/16 17:17:01;;;;;;;1.00;1.00;;;22.30;99.90;;;;;;4979460;28;20484;-70
2022/05/16 17:19:27;;;;;;;1.47;1.37;;;22.20;99.70;;;;;;4993688;28;20453;-69
2022/05/16 17:21:53;;;;;;;1.87;1.77;;;22.20;99.70;;;;;;4993118;28;20421;-68
2022/05/16 17:24:19;;;;;;;0.93;0.93;;;22.20;99.90;;;;;;4993283;28;20442;-68
2022/05/16 17:26:44;;;;;;;1.70;1.53;;;22.10;99.90;;;;;;4993574;28;20172;-72
2022/05/16 17:29:12;;;;;;;5.40;3.77;;;22.10;99.90;;;;;;4959570;28;20176;-70
2022/05/16 17:31:43;;;;;;;1.63;1.40;;;22.00;99.90;;;;;;4992274;28;20242;-69
2022/05/16 17:34:09;;;;;;;1.30;1.20;;;21.90;99.90;;;;;;4990961;28;20552;-69
2022/05/16 17:36:35;;;;;;;2.90;1.70;;;21.80;99.90;;;;;;4992922;28;20402;-68
2022/05/16 17:39:02;;;;;;;1.77;1.40;;;21.70;99.90;;;;;;4956264;28;20390;-67
2022/05/16 17:41:29;;;;;;;3.53;3.23;;;21.70;99.90;;;;;;4982819;28;20422;-66
2022/05/16 17:43:55;;;;;;;1.80;1.50;;;21.60;99.90;;;;;;4991179;28;21034;-69
2022/05/16 17:46:21;;;;;;;4.10;1.20;;;21.50;99.90;;;;;;4992751;28;20388;-67
2022/05/16 17:48:49;;;;;;;2.10;1.60;;;21.40;99.90;;;;;;4991161;28;20178;-68
2022/05/16 17:51:33;;;;;;;2.33;2.13;;;21.30;99.90;;;;;;4992632;28;20473;-68
2022/05/16 17:54:07;;;;;;;1.00;1.00;;;21.20;99.90;;;;;;4991064;28;20438;-68
2022/05/16 17:56:33;;;;;;;1.50;1.40;;;21.10;99.90;;;;;;4992428;28;20761;-70
2022/05/16 17:59:00;;;;;;;2.47;1.33;;;21.00;99.80;;;;;;4992711;28;20407;-66
2022/05/16 18:01:26;;;;;;;2.80;1.30;;;20.90;99.80;;;;;;4992307;28;20215;-68
2022/05/16 18:03:52;;;;;;;2.13;1.10;;;20.80;99.90;;;;;;4991577;28;20474;-66